sensor_id;sensor_type;location;lat;lon;timestamp;P1;durP1;ratioP1;P2;durP2;ratioP2
80322;SDS011;69636;52.372;13.610;2023-05-10T00:01:21;7.53;;;6.20;;
80322;SDS011;69636;52.372;13.610;2023-05-10T00:03:49;8.07;;;6.53;;
80322;SDS011;69636;52.372;13.610;2023-05-10T00:06:16;7.03;;;5.22;;
80322;SDS011;69636;52.372;13.610;2023-05-10T00:08:44;6.63;;;5.45;;
80322;SDS011;69636;52.372;13.610;2023-05-10T00:11:12;7.93;;;5.65;;
80322;SDS011;69636;52.372;13.610;2023-05-10T00:13:41;6.85;;;5.30;;
80322;SDS011;69636;52.372;13.610;2023-05-10T00:16:08;6.95;;;5.10;;
80322;SDS011;69636;52.372;13.610;2023-05-10T00:18:38;6.88;;;5.80;;
80322;SDS011;69636;52.372;13.610;2023-05-10T00:21:05;8.75;;;6.63;;
80322;SDS011;69636;52.372;13.610;2023-05-10T00:23:33;6.55;;;4.93;;
80322;SDS011;69636;52.372;13.610;2023-05-10T00:26:00;7.28;;;6.00;;
80322;SDS011;69636;52.372;13.610;2023-05-10T00:28:27;6.57;;;5.38;;
80322;SDS011;69636;52.372;13.610;2023-05-10T00:30:56;6.70;;;6.00;;
80322;SDS011;69636;52.372;13.610;2023-05-10T00:33:23;7.05;;;5.72;;
80322;SDS011;69636;52.372;13.610;2023-05-10T00:35:50;7.85;;;5.45;;
80322;SDS011;69636;52.372;13.610;2023-05-10T00:38:18;8.45;;;5.68;;
80322;SDS011;69636;52.372;13.610;2023-05-10T00:40:45;7.68;;;5.70;;
80322;SDS011;69636;52.372;13.610;2023-05-10T00:43:12;6.78;;;5.65;;
80322;SDS011;69636;52.372;13.610;2023-05-10T00:45:40;6.80;;;4.95;;
80322;SDS011;69636;52.372;13.610;2023-05-10T00:48:09;8.00;;;5.82;;
80322;SDS011;69636;52.372;13.610;2023-05-10T00:50:36;8.35;;;6.05;;
80322;SDS011;69636;52.372;13.610;2023-05-10T00:53:04;9.63;;;5.90;;
80322;SDS011;69636;52.372;13.610;2023-05-10T00:55:31;7.03;;;5.80;;
80322;SDS011;69636;52.372;13.610;2023-05-10T00:57:59;7.85;;;5.88;;
80322;SDS011;69636;52.372;13.610;2023-05-10T01:00:26;7.82;;;5.60;;
80322;SDS011;69636;52.372;13.610;2023-05-10T01:02:54;7.32;;;5.82;;
80322;SDS011;69636;52.372;13.610;2023-05-10T01:05:23;8.02;;;6.00;;
80322;SDS011;69636;52.372;13.610;2023-05-10T01:07:51;7.80;;;5.70;;
80322;SDS011;69636;52.372;13.610;2023-05-10T01:10:19;7.90;;;5.85;;
80322;SDS011;69636;52.372;13.610;2023-05-10T01:12:47;8.50;;;6.25;;
80322;SDS011;69636;52.372;13.610;2023-05-10T01:15:15;7.45;;;5.50;;
80322;SDS011;69636;52.372;13.610;2023-05-10T01:17:46;8.20;;;6.10;;
80322;SDS011;69636;52.372;13.610;2023-05-10T01:20:15;8.65;;;6.00;;
80322;SDS011;69636;52.372;13.610;2023-05-10T01:25:31;8.93;;;6.80;;
80322;SDS011;69636;52.372;13.610;2023-05-10T01:28:24;7.35;;;5.40;;
80322;SDS011;69636;52.372;13.610;2023-05-10T01:31:08;7.55;;;6.05;;
80322;SDS011;69636;52.372;13.610;2023-05-10T01:33:52;8.77;;;5.75;;
80322;SDS011;69636;52.372;13.610;2023-05-10T01:36:23;8.05;;;5.55;;
80322;SDS011;69636;52.372;13.610;2023-05-10T01:38:59;7.95;;;6.18;;
80322;SDS011;69636;52.372;13.610;2023-05-10T01:41:32;8.55;;;6.70;;
80322;SDS011;69636;52.372;13.610;2023-05-10T01:44:09;9.68;;;6.78;;
80322;SDS011;69636;52.372;13.610;2023-05-10T01:46:43;7.95;;;6.47;;
80322;SDS011;69636;52.372;13.610;2023-05-10T01:49:19;7.32;;;5.53;;
80322;SDS011;69636;52.372;13.610;2023-05-10T01:51:50;8.52;;;7.15;;
80322;SDS011;69636;52.372;13.610;2023-05-10T01:54:20;7.75;;;5.57;;
80322;SDS011;69636;52.372;13.610;2023-05-10T01:56:52;7.55;;;5.78;;
80322;SDS011;69636;52.372;13.610;2023-05-10T01:59:29;10.05;;;5.88;;
80322;SDS011;69636;52.372;13.610;2023-05-10T02:02:00;7.30;;;5.80;;
80322;SDS011;69636;52.372;13.610;2023-05-10T02:04:30;7.90;;;5.82;;
80322;SDS011;69636;52.372;13.610;2023-05-10T02:07:01;8.18;;;5.95;;
80322;SDS011;69636;52.372;13.610;2023-05-10T02:09:29;8.40;;;6.35;;
80322;SDS011;69636;52.372;13.610;2023-05-10T02:11:58;8.77;;;6.35;;
80322;SDS011;69636;52.372;13.610;2023-05-10T02:14:29;8.27;;;5.18;;
80322;SDS011;69636;52.372;13.610;2023-05-10T02:16:59;8.68;;;6.43;;
80322;SDS011;69636;52.372;13.610;2023-05-10T02:19:28;7.22;;;5.55;;
80322;SDS011;69636;52.372;13.610;2023-05-10T02:21:58;6.90;;;5.40;;
80322;SDS011;69636;52.372;13.610;2023-05-10T02:24:26;7.63;;;5.28;;
80322;SDS011;69636;52.372;13.610;2023-05-10T02:26:57;6.00;;;5.05;;
80322;SDS011;69636;52.372;13.610;2023-05-10T02:29:26;7.32;;;5.15;;
80322;SDS011;69636;52.372;13.610;2023-05-10T02:31:55;7.68;;;5.50;;
80322;SDS011;69636;52.372;13.610;2023-05-10T02:34:25;6.80;;;5.28;;
80322;SDS011;69636;52.372;13.610;2023-05-10T02:36:53;6.88;;;5.45;;
80322;SDS011;69636;52.372;13.610;2023-05-10T02:39:23;7.82;;;5.88;;
80322;SDS011;69636;52.372;13.610;2023-05-10T02:41:51;7.45;;;5.65;;
80322;SDS011;69636;52.372;13.610;2023-05-10T02:44:20;8.98;;;6.15;;
80322;SDS011;69636;52.372;13.610;2023-05-10T02:46:49;7.43;;;4.90;;
80322;SDS011;69636;52.372;13.610;2023-05-10T02:49:16;7.03;;;5.18;;
80322;SDS011;69636;52.372;13.610;2023-05-10T02:51:47;8.57;;;5.90;;
80322;SDS011;69636;52.372;13.610;2023-05-10T02:54:18;8.20;;;5.70;;
80322;SDS011;69636;52.372;13.610;2023-05-10T02:56:51;8.38;;;5.05;;
80322;SDS011;69636;52.372;13.610;2023-05-10T02:59:23;7.70;;;5.88;;
80322;SDS011;69636;52.372;13.610;2023-05-10T03:01:50;8.23;;;5.30;;
80322;SDS011;69636;52.372;13.610;2023-05-10T03:04:18;9.20;;;5.63;;
80322;SDS011;69636;52.372;13.610;2023-05-10T03:06:45;7.38;;;5.93;;
80322;SDS011;69636;52.372;13.610;2023-05-10T03:09:14;8.00;;;5.18;;
80322;SDS011;69636;52.372;13.610;2023-05-10T03:11:44;8.52;;;5.53;;
80322;SDS011;69636;52.372;13.610;2023-05-10T03:14:27;9.02;;;6.13;;
80322;SDS011;69636;52.372;13.610;2023-05-10T03:17:08;8.13;;;5.63;;
80322;SDS011;69636;52.372;13.610;2023-05-10T03:19:39;6.30;;;4.57;;
80322;SDS011;69636;52.372;13.610;2023-05-10T03:22:14;6.28;;;4.80;;
80322;SDS011;69636;52.372;13.610;2023-05-10T03:24:49;7.72;;;4.80;;
80322;SDS011;69636;52.372;13.610;2023-05-10T03:27:21;6.82;;;4.60;;
80322;SDS011;69636;52.372;13.610;2023-05-10T03:29:50;7.65;;;5.72;;
80322;SDS011;69636;52.372;13.610;2023-05-10T03:32:19;7.90;;;4.78;;
80322;SDS011;69636;52.372;13.610;2023-05-10T03:34:46;7.10;;;4.82;;
80322;SDS011;69636;52.372;13.610;2023-05-10T03:37:13;5.95;;;4.47;;
80322;SDS011;69636;52.372;13.610;2023-05-10T03:39:41;7.07;;;4.78;;
80322;SDS011;69636;52.372;13.610;2023-05-10T03:42:08;6.50;;;5.07;;
80322;SDS011;69636;52.372;13.610;2023-05-10T03:44:37;7.90;;;4.85;;
80322;SDS011;69636;52.372;13.610;2023-05-10T03:47:04;6.85;;;4.82;;
80322;SDS011;69636;52.372;13.610;2023-05-10T03:49:32;6.13;;;5.03;;
80322;SDS011;69636;52.372;13.610;2023-05-10T03:51:59;9.07;;;5.60;;
80322;SDS011;69636;52.372;13.610;2023-05-10T03:54:26;7.68;;;5.13;;
80322;SDS011;69636;52.372;13.610;2023-05-10T03:56:54;5.93;;;4.63;;
80322;SDS011;69636;52.372;13.610;2023-05-10T03:59:21;7.75;;;5.07;;
80322;SDS011;69636;52.372;13.610;2023-05-10T04:01:50;6.95;;;4.65;;
80322;SDS011;69636;52.372;13.610;2023-05-10T04:04:17;7.35;;;5.30;;
80322;SDS011;69636;52.372;13.610;2023-05-10T04:06:44;8.27;;;4.85;;
80322;SDS011;69636;52.372;13.610;2023-05-10T04:09:12;9.15;;;5.30;;
80322;SDS011;69636;52.372;13.610;2023-05-10T04:11:39;8.25;;;5.10;;
80322;SDS011;69636;52.372;13.610;2023-05-10T04:14:06;8.13;;;5.63;;
80322;SDS011;69636;52.372;13.610;2023-05-10T04:16:33;6.53;;;4.47;;
80322;SDS011;69636;52.372;13.610;2023-05-10T04:19:02;7.38;;;4.35;;
80322;SDS011;69636;52.372;13.610;2023-05-10T04:21:29;7.28;;;5.25;;
80322;SDS011;69636;52.372;13.610;2023-05-10T04:23:58;7.60;;;4.60;;
80322;SDS011;69636;52.372;13.610;2023-05-10T04:26:25;7.47;;;5.00;;
80322;SDS011;69636;52.372;13.610;2023-05-10T04:28:55;6.38;;;4.85;;
80322;SDS011;69636;52.372;13.610;2023-05-10T04:31:22;8.55;;;5.40;;
80322;SDS011;69636;52.372;13.610;2023-05-10T04:33:49;7.38;;;5.40;;
80322;SDS011;69636;52.372;13.610;2023-05-10T04:36:19;4.93;;;3.90;;
80322;SDS011;69636;52.372;13.610;2023-05-10T04:38:46;6.38;;;5.05;;
80322;SDS011;69636;52.372;13.610;2023-05-10T04:41:14;6.35;;;4.32;;
80322;SDS011;69636;52.372;13.610;2023-05-10T04:43:41;6.78;;;4.65;;
80322;SDS011;69636;52.372;13.610;2023-05-10T04:46:09;6.25;;;3.95;;
80322;SDS011;69636;52.372;13.610;2023-05-10T04:48:36;6.28;;;4.05;;
80322;SDS011;69636;52.372;13.610;2023-05-10T04:51:03;7.53;;;4.75;;
80322;SDS011;69636;52.372;13.610;2023-05-10T04:53:32;6.50;;;4.65;;
80322;SDS011;69636;52.372;13.610;2023-05-10T04:55:59;5.72;;;4.03;;
80322;SDS011;69636;52.372;13.610;2023-05-10T04:58:26;5.53;;;3.80;;
80322;SDS011;69636;52.372;13.610;2023-05-10T05:00:54;7.88;;;5.55;;
80322;SDS011;69636;52.372;13.610;2023-05-10T05:03:21;6.32;;;4.18;;
80322;SDS011;69636;52.372;13.610;2023-05-10T05:05:48;5.75;;;3.88;;
80322;SDS011;69636;52.372;13.610;2023-05-10T05:08:15;7.35;;;4.35;;
80322;SDS011;69636;52.372;13.610;2023-05-10T05:10:44;5.93;;;4.05;;
80322;SDS011;69636;52.372;13.610;2023-05-10T05:13:12;5.68;;;3.42;;
80322;SDS011;69636;52.372;13.610;2023-05-10T05:15:39;6.35;;;3.83;;
80322;SDS011;69636;52.372;13.610;2023-05-10T05:18:06;5.32;;;4.05;;
80322;SDS011;69636;52.372;13.610;2023-05-10T05:20:34;8.00;;;4.68;;
80322;SDS011;69636;52.372;13.610;2023-05-10T05:23:01;8.45;;;3.90;;
80322;SDS011;69636;52.372;13.610;2023-05-10T05:25:29;6.15;;;4.40;;
80322;SDS011;69636;52.372;13.610;2023-05-10T05:27:57;5.53;;;3.40;;
80322;SDS011;69636;52.372;13.610;2023-05-10T05:30:26;6.85;;;4.03;;
80322;SDS011;69636;52.372;13.610;2023-05-10T05:32:53;5.05;;;4.03;;
80322;SDS011;69636;52.372;13.610;2023-05-10T05:35:20;5.45;;;3.88;;
80322;SDS011;69636;52.372;13.610;2023-05-10T05:37:47;6.80;;;4.15;;
80322;SDS011;69636;52.372;13.610;2023-05-10T05:40:15;6.68;;;4.20;;
80322;SDS011;69636;52.372;13.610;2023-05-10T05:42:43;4.90;;;3.60;;
80322;SDS011;69636;52.372;13.610;2023-05-10T05:45:12;6.18;;;3.97;;
80322;SDS011;69636;52.372;13.610;2023-05-10T05:47:40;6.30;;;3.88;;
80322;SDS011;69636;52.372;13.610;2023-05-10T05:50:08;5.90;;;3.33;;
80322;SDS011;69636;52.372;13.610;2023-05-10T05:52:36;5.82;;;3.03;;
80322;SDS011;69636;52.372;13.610;2023-05-10T05:55:04;5.53;;;3.97;;
80322;SDS011;69636;52.372;13.610;2023-05-10T05:57:31;5.30;;;3.10;;
80322;SDS011;69636;52.372;13.610;2023-05-10T05:59:58;5.72;;;4.00;;
80322;SDS011;69636;52.372;13.610;2023-05-10T06:02:27;7.13;;;3.85;;
80322;SDS011;69636;52.372;13.610;2023-05-10T06:04:54;4.85;;;3.45;;
80322;SDS011;69636;52.372;13.610;2023-05-10T06:07:22;5.15;;;3.47;;
80322;SDS011;69636;52.372;13.610;2023-05-10T06:09:49;5.97;;;3.75;;
80322;SDS011;69636;52.372;13.610;2023-05-10T06:12:16;6.30;;;3.10;;
80322;SDS011;69636;52.372;13.610;2023-05-10T06:14:44;6.95;;;3.65;;
80322;SDS011;69636;52.372;13.610;2023-05-10T06:17:11;6.05;;;3.35;;
80322;SDS011;69636;52.372;13.610;2023-05-10T06:19:40;5.65;;;3.15;;
80322;SDS011;69636;52.372;13.610;2023-05-10T06:22:07;4.47;;;2.83;;
80322;SDS011;69636;52.372;13.610;2023-05-10T06:24:35;4.70;;;3.55;;
80322;SDS011;69636;52.372;13.610;2023-05-10T06:27:03;5.65;;;3.70;;
80322;SDS011;69636;52.372;13.610;2023-05-10T06:29:32;7.68;;;2.65;;
80322;SDS011;69636;52.372;13.610;2023-05-10T06:31:59;6.10;;;3.40;;
80322;SDS011;69636;52.372;13.610;2023-05-10T06:34:26;3.80;;;2.72;;
80322;SDS011;69636;52.372;13.610;2023-05-10T06:36:55;7.63;;;3.20;;
80322;SDS011;69636;52.372;13.610;2023-05-10T06:39:22;4.65;;;2.83;;
80322;SDS011;69636;52.372;13.610;2023-05-10T06:41:51;4.78;;;2.83;;
80322;SDS011;69636;52.372;13.610;2023-05-10T06:44:19;5.20;;;3.42;;
80322;SDS011;69636;52.372;13.610;2023-05-10T06:46:46;5.85;;;2.58;;
80322;SDS011;69636;52.372;13.610;2023-05-10T06:49:14;4.38;;;2.63;;
80322;SDS011;69636;52.372;13.610;2023-05-10T06:51:41;4.45;;;3.25;;
80322;SDS011;69636;52.372;13.610;2023-05-10T06:54:10;4.85;;;2.63;;
80322;SDS011;69636;52.372;13.610;2023-05-10T06:56:37;5.32;;;2.90;;
80322;SDS011;69636;52.372;13.610;2023-05-10T06:59:04;6.10;;;3.10;;
80322;SDS011;69636;52.372;13.610;2023-05-10T07:01:32;4.80;;;2.80;;
80322;SDS011;69636;52.372;13.610;2023-05-10T07:03:59;4.93;;;2.65;;
80322;SDS011;69636;52.372;13.610;2023-05-10T07:06:26;3.97;;;2.35;;
80322;SDS011;69636;52.372;13.610;2023-05-10T07:08:59;8.98;;;3.33;;
80322;SDS011;69636;52.372;13.610;2023-05-10T07:11:28;4.07;;;3.00;;
80322;SDS011;69636;52.372;13.610;2023-05-10T07:13:55;6.15;;;2.97;;
80322;SDS011;69636;52.372;13.610;2023-05-10T07:16:23;4.75;;;2.58;;
80322;SDS011;69636;52.372;13.610;2023-05-10T07:18:50;7.55;;;2.55;;
80322;SDS011;69636;52.372;13.610;2023-05-10T07:21:17;5.32;;;3.40;;
80322;SDS011;69636;52.372;13.610;2023-05-10T07:23:45;5.03;;;2.75;;
80322;SDS011;69636;52.372;13.610;2023-05-10T07:26:12;4.35;;;2.35;;
80322;SDS011;69636;52.372;13.610;2023-05-10T07:28:41;5.70;;;2.97;;
80322;SDS011;69636;52.372;13.610;2023-05-10T07:31:08;4.30;;;2.42;;
80322;SDS011;69636;52.372;13.610;2023-05-10T07:33:36;3.88;;;2.40;;
80322;SDS011;69636;52.372;13.610;2023-05-10T07:36:03;5.00;;;2.80;;
80322;SDS011;69636;52.372;13.610;2023-05-10T07:38:30;5.25;;;2.95;;
80322;SDS011;69636;52.372;13.610;2023-05-10T07:40:58;6.85;;;2.95;;
80322;SDS011;69636;52.372;13.610;2023-05-10T07:43:25;3.88;;;2.47;;
80322;SDS011;69636;52.372;13.610;2023-05-10T07:45:54;5.30;;;2.72;;
80322;SDS011;69636;52.372;13.610;2023-05-10T07:48:22;7.03;;;3.13;;
80322;SDS011;69636;52.372;13.610;2023-05-10T07:50:49;5.22;;;2.67;;
80322;SDS011;69636;52.372;13.610;2023-05-10T07:53:16;4.07;;;2.33;;
80322;SDS011;69636;52.372;13.610;2023-05-10T07:55:49;4.57;;;2.53;;
80322;SDS011;69636;52.372;13.610;2023-05-10T07:58:17;4.28;;;2.42;;
80322;SDS011;69636;52.372;13.610;2023-05-10T08:00:44;6.82;;;2.63;;
80322;SDS011;69636;52.372;13.610;2023-05-10T08:03:13;7.07;;;2.90;;
80322;SDS011;69636;52.372;13.610;2023-05-10T08:05:40;4.10;;;2.72;;
80322;SDS011;69636;52.372;13.610;2023-05-10T08:10:35;3.60;;;2.20;;
80322;SDS011;69636;52.372;13.610;2023-05-10T08:13:02;5.45;;;2.80;;
80322;SDS011;69636;52.372;13.610;2023-05-10T08:15:29;5.53;;;3.03;;
80322;SDS011;69636;52.372;13.610;2023-05-10T08:17:57;4.25;;;2.42;;
80322;SDS011;69636;52.372;13.610;2023-05-10T08:20:25;4.80;;;2.60;;
80322;SDS011;69636;52.372;13.610;2023-05-10T08:22:53;4.03;;;2.70;;
80322;SDS011;69636;52.372;13.610;2023-05-10T08:25:20;3.58;;;2.33;;
80322;SDS011;69636;52.372;13.610;2023-05-10T08:27:48;4.65;;;3.00;;
80322;SDS011;69636;52.372;13.610;2023-05-10T08:30:15;4.72;;;2.38;;
80322;SDS011;69636;52.372;13.610;2023-05-10T08:32:42;3.72;;;2.25;;
80322;SDS011;69636;52.372;13.610;2023-05-10T08:35:09;3.75;;;2.47;;
80322;SDS011;69636;52.372;13.610;2023-05-10T08:37:38;4.10;;;2.47;;
80322;SDS011;69636;52.372;13.610;2023-05-10T08:40:06;3.97;;;2.80;;
80322;SDS011;69636;52.372;13.610;2023-05-10T08:42:36;5.03;;;2.85;;
80322;SDS011;69636;52.372;13.610;2023-05-10T08:45:05;7.93;;;3.28;;
80322;SDS011;69636;52.372;13.610;2023-05-10T08:47:34;3.83;;;2.42;;
80322;SDS011;69636;52.372;13.610;2023-05-10T08:50:04;3.92;;;2.50;;
80322;SDS011;69636;52.372;13.610;2023-05-10T08:52:33;5.03;;;2.55;;
80322;SDS011;69636;52.372;13.610;2023-05-10T08:55:06;3.72;;;2.47;;
80322;SDS011;69636;52.372;13.610;2023-05-10T08:57:34;4.38;;;2.72;;
80322;SDS011;69636;52.372;13.610;2023-05-10T09:00:03;4.20;;;2.13;;
80322;SDS011;69636;52.372;13.610;2023-05-10T09:02:30;3.72;;;2.47;;
80322;SDS011;69636;52.372;13.610;2023-05-10T09:04:58;3.95;;;2.40;;
80322;SDS011;69636;52.372;13.610;2023-05-10T09:07:26;4.57;;;2.70;;
80322;SDS011;69636;52.372;13.610;2023-05-10T09:09:54;3.83;;;2.83;;
80322;SDS011;69636;52.372;13.610;2023-05-10T09:14:50;6.13;;;2.80;;
80322;SDS011;69636;52.372;13.610;2023-05-10T09:17:18;4.63;;;2.65;;
80322;SDS011;69636;52.372;13.610;2023-05-10T09:19:46;4.50;;;2.47;;
80322;SDS011;69636;52.372;13.610;2023-05-10T09:22:13;8.18;;;4.40;;
80322;SDS011;69636;52.372;13.610;2023-05-10T09:24:41;18.42;;;13.32;;
80322;SDS011;69636;52.372;13.610;2023-05-10T09:27:10;5.18;;;2.53;;
80322;SDS011;69636;52.372;13.610;2023-05-10T09:29:41;4.65;;;2.63;;
80322;SDS011;69636;52.372;13.610;2023-05-10T09:32:09;4.50;;;2.45;;
80322;SDS011;69636;52.372;13.610;2023-05-10T09:34:39;3.50;;;2.50;;
80322;SDS011;69636;52.372;13.610;2023-05-10T09:37:09;5.63;;;2.78;;
80322;SDS011;69636;52.372;13.610;2023-05-10T09:42:04;5.15;;;2.50;;
80322;SDS011;69636;52.372;13.610;2023-05-10T09:44:33;5.18;;;2.53;;
80322;SDS011;69636;52.372;13.610;2023-05-10T09:47:05;6.43;;;2.63;;
80322;SDS011;69636;52.372;13.610;2023-05-10T09:49:33;4.03;;;2.67;;
80322;SDS011;69636;52.372;13.610;2023-05-10T09:52:01;4.70;;;2.60;;
80322;SDS011;69636;52.372;13.610;2023-05-10T09:54:30;5.28;;;2.60;;
80322;SDS011;69636;52.372;13.610;2023-05-10T09:56:58;4.22;;;2.50;;
80322;SDS011;69636;52.372;13.610;2023-05-10T09:59:27;5.55;;;2.80;;
80322;SDS011;69636;52.372;13.610;2023-05-10T10:01:56;7.47;;;2.85;;
80322;SDS011;69636;52.372;13.610;2023-05-10T10:04:28;4.32;;;2.65;;
80322;SDS011;69636;52.372;13.610;2023-05-10T10:06:58;4.25;;;2.30;;
80322;SDS011;69636;52.372;13.610;2023-05-10T10:09:28;5.03;;;2.65;;
80322;SDS011;69636;52.372;13.610;2023-05-10T10:11:56;3.88;;;2.55;;
80322;SDS011;69636;52.372;13.610;2023-05-10T10:14:23;4.60;;;2.33;;
80322;SDS011;69636;52.372;13.610;2023-05-10T10:16:51;4.90;;;2.45;;
80322;SDS011;69636;52.372;13.610;2023-05-10T10:19:35;4.15;;;2.40;;
80322;SDS011;69636;52.372;13.610;2023-05-10T10:22:04;4.78;;;2.63;;
80322;SDS011;69636;52.372;13.610;2023-05-10T10:24:33;4.10;;;2.47;;
80322;SDS011;69636;52.372;13.610;2023-05-10T10:27:02;4.05;;;2.35;;
80322;SDS011;69636;52.372;13.610;2023-05-10T10:29:36;4.68;;;3.15;;
80322;SDS011;69636;52.372;13.610;2023-05-10T10:32:12;5.90;;;2.67;;
80322;SDS011;69636;52.372;13.610;2023-05-10T10:34:50;6.32;;;2.75;;
80322;SDS011;69636;52.372;13.610;2023-05-10T10:37:18;4.43;;;3.08;;
80322;SDS011;69636;52.372;13.610;2023-05-10T10:39:47;4.20;;;2.72;;
80322;SDS011;69636;52.372;13.610;2023-05-10T10:45:11;4.38;;;2.33;;
80322;SDS011;69636;52.372;13.610;2023-05-10T10:47:39;4.72;;;2.50;;
80322;SDS011;69636;52.372;13.610;2023-05-10T10:52:37;4.05;;;2.35;;
80322;SDS011;69636;52.372;13.610;2023-05-10T10:55:05;6.40;;;2.70;;
80322;SDS011;69636;52.372;13.610;2023-05-10T10:57:42;3.60;;;2.53;;
80322;SDS011;69636;52.372;13.610;2023-05-10T11:03:05;5.22;;;2.30;;
80322;SDS011;69636;52.372;13.610;2023-05-10T11:05:37;4.90;;;2.67;;
80322;SDS011;69636;52.372;13.610;2023-05-10T11:08:10;7.85;;;2.53;;
80322;SDS011;69636;52.372;13.610;2023-05-10T11:10:39;6.55;;;2.60;;
80322;SDS011;69636;52.372;13.610;2023-05-10T11:13:07;8.40;;;2.80;;
80322;SDS011;69636;52.372;13.610;2023-05-10T11:15:36;4.30;;;2.22;;
80322;SDS011;69636;52.372;13.610;2023-05-10T11:18:17;5.50;;;2.50;;
80322;SDS011;69636;52.372;13.610;2023-05-10T11:20:51;4.15;;;2.30;;
80322;SDS011;69636;52.372;13.610;2023-05-10T11:23:19;5.45;;;2.65;;
80322;SDS011;69636;52.372;13.610;2023-05-10T11:28:14;4.45;;;2.80;;
80322;SDS011;69636;52.372;13.610;2023-05-10T11:30:46;6.07;;;2.63;;
80322;SDS011;69636;52.372;13.610;2023-05-10T11:33:17;6.82;;;2.67;;
80322;SDS011;69636;52.372;13.610;2023-05-10T11:35:45;4.25;;;2.15;;
80322;SDS011;69636;52.372;13.610;2023-05-10T11:38:15;5.28;;;2.47;;
80322;SDS011;69636;52.372;13.610;2023-05-10T11:40:42;7.00;;;2.78;;
80322;SDS011;69636;52.372;13.610;2023-05-10T11:43:10;6.40;;;2.80;;
80322;SDS011;69636;52.372;13.610;2023-05-10T11:45:38;6.55;;;2.40;;
80322;SDS011;69636;52.372;13.610;2023-05-10T11:48:08;4.13;;;2.35;;
80322;SDS011;69636;52.372;13.610;2023-05-10T11:53:02;4.97;;;2.58;;
80322;SDS011;69636;52.372;13.610;2023-05-10T11:55:30;7.00;;;2.22;;
80322;SDS011;69636;52.372;13.610;2023-05-10T11:58:01;5.10;;;2.35;;
80322;SDS011;69636;52.372;13.610;2023-05-10T12:00:28;5.22;;;2.35;;
80322;SDS011;69636;52.372;13.610;2023-05-10T12:02:57;3.88;;;2.08;;
80322;SDS011;69636;52.372;13.610;2023-05-10T12:05:25;3.90;;;2.30;;
80322;SDS011;69636;52.372;13.610;2023-05-10T12:07:53;3.50;;;2.08;;
80322;SDS011;69636;52.372;13.610;2023-05-10T12:10:39;4.18;;;2.35;;
80322;SDS011;69636;52.372;13.610;2023-05-10T12:13:10;3.97;;;2.20;;
80322;SDS011;69636;52.372;13.610;2023-05-10T12:15:39;3.70;;;2.17;;
80322;SDS011;69636;52.372;13.610;2023-05-10T12:20:34;4.32;;;2.40;;
80322;SDS011;69636;52.372;13.610;2023-05-10T12:23:03;6.38;;;2.85;;
80322;SDS011;69636;52.372;13.610;2023-05-10T12:25:31;4.05;;;2.22;;
80322;SDS011;69636;52.372;13.610;2023-05-10T12:28:02;5.18;;;2.33;;
80322;SDS011;69636;52.372;13.610;2023-05-10T12:30:31;4.15;;;2.05;;
80322;SDS011;69636;52.372;13.610;2023-05-10T12:33:01;5.53;;;2.45;;
80322;SDS011;69636;52.372;13.610;2023-05-10T12:35:30;3.90;;;2.28;;
80322;SDS011;69636;52.372;13.610;2023-05-10T12:37:58;3.75;;;2.25;;
80322;SDS011;69636;52.372;13.610;2023-05-10T12:40:25;6.82;;;2.20;;
80322;SDS011;69636;52.372;13.610;2023-05-10T12:42:53;4.95;;;2.40;;
80322;SDS011;69636;52.372;13.610;2023-05-10T12:47:49;3.55;;;1.85;;
80322;SDS011;69636;52.372;13.610;2023-05-10T12:52:44;5.38;;;2.35;;
80322;SDS011;69636;52.372;13.610;2023-05-10T12:55:11;6.35;;;2.63;;
80322;SDS011;69636;52.372;13.610;2023-05-10T12:57:40;4.22;;;2.25;;
80322;SDS011;69636;52.372;13.610;2023-05-10T13:00:08;4.18;;;2.13;;
80322;SDS011;69636;52.372;13.610;2023-05-10T13:02:37;5.22;;;2.63;;
80322;SDS011;69636;52.372;13.610;2023-05-10T13:05:05;4.45;;;1.92;;
80322;SDS011;69636;52.372;13.610;2023-05-10T13:07:33;3.33;;;2.03;;
80322;SDS011;69636;52.372;13.610;2023-05-10T13:10:00;5.07;;;2.28;;
80322;SDS011;69636;52.372;13.610;2023-05-10T13:12:27;3.90;;;2.15;;
80322;SDS011;69636;52.372;13.610;2023-05-10T13:14:55;4.28;;;2.20;;
80322;SDS011;69636;52.372;13.610;2023-05-10T13:19:52;4.30;;;2.17;;
80322;SDS011;69636;52.372;13.610;2023-05-10T13:22:20;3.97;;;2.38;;
80322;SDS011;69636;52.372;13.610;2023-05-10T13:25:05;2.90;;;2.00;;
80322;SDS011;69636;52.372;13.610;2023-05-10T13:27:33;3.70;;;2.10;;
80322;SDS011;69636;52.372;13.610;2023-05-10T13:30:00;5.05;;;2.47;;
80322;SDS011;69636;52.372;13.610;2023-05-10T13:32:28;3.13;;;2.28;;
80322;SDS011;69636;52.372;13.610;2023-05-10T13:34:57;4.15;;;2.40;;
80322;SDS011;69636;52.372;13.610;2023-05-10T13:37:24;3.35;;;1.92;;
80322;SDS011;69636;52.372;13.610;2023-05-10T13:39:52;5.78;;;2.13;;
80322;SDS011;69636;52.372;13.610;2023-05-10T13:42:21;4.07;;;2.47;;
80322;SDS011;69636;52.372;13.610;2023-05-10T13:44:49;4.55;;;2.28;;
80322;SDS011;69636;52.372;13.610;2023-05-10T13:49:43;4.70;;;2.03;;
80322;SDS011;69636;52.372;13.610;2023-05-10T13:52:12;4.18;;;2.22;;
80322;SDS011;69636;52.372;13.610;2023-05-10T13:54:40;3.65;;;2.38;;
80322;SDS011;69636;52.372;13.610;2023-05-10T13:57:07;4.20;;;1.92;;
80322;SDS011;69636;52.372;13.610;2023-05-10T13:59:35;4.53;;;2.80;;
80322;SDS011;69636;52.372;13.610;2023-05-10T14:02:04;4.00;;;2.13;;
80322;SDS011;69636;52.372;13.610;2023-05-10T14:04:31;3.53;;;2.33;;
80322;SDS011;69636;52.372;13.610;2023-05-10T14:06:59;5.38;;;2.35;;
80322;SDS011;69636;52.372;13.610;2023-05-10T14:09:28;3.72;;;2.10;;
80322;SDS011;69636;52.372;13.610;2023-05-10T14:11:56;3.15;;;1.95;;
80322;SDS011;69636;52.372;13.610;2023-05-10T14:14:23;4.90;;;2.22;;
80322;SDS011;69636;52.372;13.610;2023-05-10T14:19:17;3.88;;;2.28;;
80322;SDS011;69636;52.372;13.610;2023-05-10T14:24:12;4.00;;;2.30;;
80322;SDS011;69636;52.372;13.610;2023-05-10T14:29:08;4.15;;;1.90;;
80322;SDS011;69636;52.372;13.610;2023-05-10T14:31:38;3.42;;;2.20;;
80322;SDS011;69636;52.372;13.610;2023-05-10T14:34:05;3.75;;;2.22;;
80322;SDS011;69636;52.372;13.610;2023-05-10T14:36:32;4.32;;;2.38;;
80322;SDS011;69636;52.372;13.610;2023-05-10T14:39:00;3.55;;;2.42;;
80322;SDS011;69636;52.372;13.610;2023-05-10T14:41:27;3.88;;;2.55;;
80322;SDS011;69636;52.372;13.610;2023-05-10T14:46:23;5.00;;;2.53;;
80322;SDS011;69636;52.372;13.610;2023-05-10T14:51:17;3.13;;;1.85;;
80322;SDS011;69636;52.372;13.610;2023-05-10T14:53:44;5.55;;;2.10;;
80322;SDS011;69636;52.372;13.610;2023-05-10T14:56:14;3.50;;;2.20;;
80322;SDS011;69636;52.372;13.610;2023-05-10T14:58:41;3.25;;;1.95;;
80322;SDS011;69636;52.372;13.610;2023-05-10T15:01:10;3.95;;;2.13;;
80322;SDS011;69636;52.372;13.610;2023-05-10T15:03:38;4.18;;;2.35;;
80322;SDS011;69636;52.372;13.610;2023-05-10T15:06:07;3.83;;;2.28;;
80322;SDS011;69636;52.372;13.610;2023-05-10T15:08:36;4.53;;;2.33;;
80322;SDS011;69636;52.372;13.610;2023-05-10T15:11:03;4.53;;;2.33;;
80322;SDS011;69636;52.372;13.610;2023-05-10T15:15:58;3.95;;;2.60;;
80322;SDS011;69636;52.372;13.610;2023-05-10T15:18:26;4.22;;;2.30;;
80322;SDS011;69636;52.372;13.610;2023-05-10T15:20:54;5.30;;;2.00;;
80322;SDS011;69636;52.372;13.610;2023-05-10T15:23:21;5.10;;;2.42;;
80322;SDS011;69636;52.372;13.610;2023-05-10T15:28:16;4.78;;;2.40;;
80322;SDS011;69636;52.372;13.610;2023-05-10T15:33:10;3.80;;;2.60;;
80322;SDS011;69636;52.372;13.610;2023-05-10T15:35:39;4.95;;;2.83;;
80322;SDS011;69636;52.372;13.610;2023-05-10T15:38:06;3.90;;;2.35;;